Florence, IN

3:21 AM EDT on September 03, 2014 (GMT -0400)
APRSWXNET Warsaw KY US | Change Station
CLOSE
Current Station
Personal Weather Station
Location: Sanders, KY
Elevation: 767 ft
Nearby Weather Stations
Active Advisory: Special Statement

Elev 767 ft 38.68 °N, 84.94 °W | Updated 51 minutes ago

Fog
Fog
68 °F
Feels Like 68 °F
N
0
Wind Variable Wind from WSW
Gusts 0.0 mph

Today
High -- | Low -- °F
--% Chance of Precip.
Yesterday
High -- | Low -- °F
Precip. -- in
7:10 AM 8:06 PM
First Quarter, 59% visible
Pressure 30.00 in
Visibility 0.2 miles
Clouds
Dew Point 68 °F
Humidity 99%
Rainfall 0.31 in
Snow Depth Not available.
UV Not available.
Pollen 5.00 out of 12
Ozone Good
PM2.5 Moderate
Flu Activity Not available.
METAR KCVG 030652Z 00000KT 1/4SM R18C/1800V3000FT FG VV001 19/18 A3002 RMK AO2 TWR VIS 1/2 SLP157 T01940183 $

More Conditions Fewer Conditions

Pressure 30.00 in
Visibility 0.2 miles
Clouds
Dew Point 68 °F
Humidity 99%
Rainfall 0.31 in
Snow Depth Not available.
UV Not available.
Pollen 5.00 out of 12
Ozone Good
PM2.5 Moderate
Flu Activity Not available.
METAR KCVG 030652Z 00000KT 1/4SM R18C/1800V3000FT FG VV001 19/18 A3002 RMK AO2 TWR VIS 1/2 SLP157 T01940183 $

More Conditions Fewer Conditions

10-Day Weather Forecast

Almanac

Astronomy

Sep. 03, 2014 Rise Set
Actual Time 7:10 AM EDT 8:06 PM EDT
Civil Twilight 6:43 AM EDT 8:34 PM EDT
Nautical Twilight 6:11 AM EDT 9:06 PM EDT
Astronomical Twilight 5:37 AM EDT 9:39 PM EDT
Moon 3:46 PM EDT 1:05 AM EDT
Length of Visible Light 13h 50m
Length of Day
12h 56m
Tomorrow will be 2m 26s shorter.
First Quarter, 59% of the Moon is Illuminated
Today
First Quarter
Sep 8
Full
Sep 15
Last Quarter
Sep 24
New
Oct 1
First Quarter

Today's Extremes

State Highs State Lows

Community

WunderPhotos

Upload Photos

1,749,891 photos uploaded!

Nearby

Air Quality

  Air Quality AQ Index Pollutant
Yesterday Good
PM10
Yesterday Good
OZONE
Current Moderate
PM2.5
Current Good
OZONE
Wednesday Moderate
PM2.5
Wednesday Moderate
OZONE
Thursday Moderate
PM2.5
Thursday Moderate
OZONE
Friday Moderate
PM2.5
Friday Moderate
OZONE

Snow Depth

Station Depth Elevation
No new snow has been reported.

Earthquake Activity

City Distance Mag. Time & Date
No recent earthquake activity has been reported nearby.
Minimum magnitude displayed is 2.5.

Coastal Water Temperatures

Place Temperature
No Stations Reporting

Nearby Weather Stations